• Join FlightAware (Why Join?)
  • Login
  • US Flag 
05:31AM EDT


 

Airport Tracker/Info


-or-


 

Live Flight TrackerFlight Track Log ✈ RMT7 ✈ 02-May-2012 ✈ KACT - KACT

Flight Track Log - Related Links

Times and Time Zones

All times are in EDT time to prevent confusion due to time zone crossing. See the RMT7 flight status page for this flight to view local times or setup timezone preferences in your user account.

Time Position Orientation Groundspeed Altitude Reporting Facility
EDT Latitude Longitude Course Direction KTS MPH feet Rate Location/Type
02:57PM 31.6184 -97.3035 159° South  Level FlightAware Approximate
02:58PM 31.5975 -97.2939 294° West 137 158 3,800  Level Fort Worth Center
02:59PM 31.6119 -97.3328 289° West 137 158 4,800 900 Climbing Fort Worth Center
03:00PM 31.6244 -97.3767 292° West 137 158 5,700 840 Climbing Fort Worth Center
03:01PM 31.6392 -97.4206 279° West 142 163 6,500 840 Climbing Fort Worth Center
03:02PM 31.6456 -97.4694 276° West 148 170 7,400 840 Climbing Fort Worth Center
03:03PM 31.6494 -97.5158 273° West 148 170 8,200 660 Climbing Fort Worth Center
03:04PM 31.6517 -97.5597 270° West 148 170 8,800 720 Climbing Fort Worth Center
03:05PM 31.6517 -97.6086 270° West 148 170 9,700 840 Climbing Fort Worth Center
03:06PM 31.6514 -97.6622 270° West 153 176 10,500 780 Climbing Fort Worth Center
03:07PM 31.6514 -97.7086 270° West 158 182 11,300 780 Climbing Fort Worth Center
03:08PM 31.6511 -97.7575 270° West 158 182 12,100 780 Climbing Fort Worth Center
03:09PM 31.6511 -97.8064 267° West 153 176 12,900 660 Climbing Fort Worth Center
03:10PM 31.6489 -97.8575 270° West 153 176 13,500 300 Climbing Fort Worth Center
03:11PM 31.6486 -97.9161 272° West 166 191 13,600 360 Climbing Fort Worth Center
03:12PM 31.6506 -97.9722 264° West 173 199 14,300 840 Climbing Fort Worth Center
03:13PM 31.6461 -98.0211 270° West 166 191 15,300 780 Climbing Fort Worth Center
03:14PM 31.6458 -98.0697 272° West 150 173 15,900 720 Climbing Fort Worth Center
03:15PM 31.6475 -98.1186 254° West 155 178 16,800 660 Climbing Fort Worth Center
03:16PM 31.6369 -98.1625 164° South 153 176 17,300 60 Climbing Fort Worth Center
03:17PM 31.5847 -98.1450 169° South 125 144 17,000 -240 Descending Fort Worth Center
03:18PM 31.5286 -98.1322 175° South 172 198 16,900 60 Descending Fort Worth Center
03:19PM 31.4742 -98.1269 173° South 197 227 17,200 60 Climbing Fort Worth Center
03:20PM 31.4200 -98.1194 179° South 197 227 17,100 -60 Descending Fort Worth Center
03:21PM 31.3658 -98.1189 180° South 197 227 17,100  Level Fort Worth Center
03:22PM 31.3178 -98.1186 189° South 197 227 17,100  Level Fort Worth Center
03:23PM 31.2656 -98.1278 97° East 197 227 17,200  Climbing Fort Worth Center
03:25PM 31.2575 -98.0550 360° North 138 159 17,100 -60 Descending Fort Worth Center
03:26PM 31.3161 -98.0553 North 205 236 17,100 -120 Level Fort Worth Center
03:27PM 31.3725 -98.0533 21° North 205 236 16,900 -600 Descending Fort Worth Center
03:28PM 31.4372 -98.0244 27° Northeast 210 242 15,900 -1,140 Descending Fort Worth Center
03:29PM 31.4981 -97.9883 63° Northeast 232 267 14,700 -1,320 Descending Fort Worth Center
03:30PM 31.5297 -97.9153 80° East 232 267 13,300 -900 Descending Fort Worth Center
03:31PM 31.5403 -97.8422 81° East 222 255 13,000 -180 Descending Fort Worth Center
03:32PM 31.5489 -97.7767 84° East 217 250 13,000 -480 Level Fort Worth Center
03:33PM 31.5553 -97.7058 94° East 217 250 12,100 -1,080 Descending Fort Worth Center
03:34PM 31.5514 -97.6328 73° East 222 255 10,900 -1,200 Descending Fort Worth Center
03:35PM 31.5681 -97.5669 82° East 222 255 9,700 -1,260 Descending Fort Worth Center
03:36PM 31.5764 -97.4964 84° East 222 255 8,400 -1,380 Descending Fort Worth Center
03:37PM 31.5828 -97.4256 75° East 217 250 7,000 -1,200 Descending Fort Worth Center
03:38PM 31.5975 -97.3622 81° East 211 243 6,000 -1,140 Descending Fort Worth Center
03:39PM 31.6058 -97.2986 38° Northeast 202 232 4,800 -1,320 Descending Fort Worth Center
03:40PM 31.6453 -97.2619 356° North 170 196 3,400 -960 Descending Fort Worth Center
03:41PM 31.6997 -97.2669 96° East 149 171 2,900 -600 Descending Fort Worth Center
03:42PM 31.6956 -97.2231 162° South 112 129 2,300 -660 Descending Fort Worth Center
03:43PM 31.6642 -97.2108 180° South 87 100 1,600 -600 Descending Fort Worth Center
03:44PM 31.6411 -97.2108 180° South 82 94 1,200 -420 Descending Fort Worth Center